Time;durP1;ratioP1;P1;durP2;ratioP2;P2;SDS_P1;SDS_P2;PMS_P1;PMS_P2;Temp;Humidity;BMP_temperature;BMP_pressure;BME280_temperature;BME280_humidity;BME280_pressure;Samples;Min_cycle;Max_cycle;Signal;HPM_P1;HPM_P2
2020/12/20 00:00:59;;;;;;;35.40;20.40;;;-1.00;99.90;;;;;;5072557;28;20435;-60
2020/12/20 00:03:27;;;;;;;38.38;22.35;;;-0.60;99.90;;;;;;5075131;28;20203;-59
2020/12/20 00:05:54;;;;;;;40.40;24.13;;;-0.60;99.90;;;;;;5074466;28;20233;-61
2020/12/20 00:08:23;;;;;;;39.25;20.85;;;-0.70;99.90;;;;;;5083435;28;20202;-60
2020/12/20 00:10:49;;;;;;;39.67;20.83;;;-0.80;99.90;;;;;;5075354;28;20493;-60
2020/12/20 00:13:17;;;;;;;32.72;20.35;;;-0.20;99.90;;;;;;5078818;28;20213;-61
2020/12/20 00:15:44;;;;;;;31.52;22.42;;;-0.90;99.90;;;;;;5076991;28;20542;-61
2020/12/20 00:18:11;;;;;;;35.58;20.05;;;-0.90;99.90;;;;;;5074661;28;20206;-60
2020/12/20 00:20:38;;;;;;;31.52;18.08;;;-0.70;99.90;;;;;;5071580;28;20422;-61
2020/12/20 00:23:04;;;;;;;40.88;21.45;;;-0.60;99.90;;;;;;5076460;28;20203;-61
2020/12/20 00:25:31;;;;;;;37.22;22.45;;;-0.70;99.90;;;;;;5076792;28;20230;-62
2020/12/20 00:27:58;;;;;;;41.00;22.10;;;-0.90;99.90;;;;;;5079393;28;20242;-60
2020/12/20 00:30:25;;;;;;;41.35;22.92;;;-0.50;99.90;;;;;;5076122;28;20211;-60
2020/12/20 00:32:51;;;;;;;32.10;20.52;;;-0.70;99.90;;;;;;5077196;28;20215;-61
2020/12/20 00:35:20;;;;;;;35.28;19.15;;;-0.80;99.90;;;;;;5076117;28;20231;-60
2020/12/20 00:37:47;;;;;;;34.30;20.67;;;-0.50;99.90;;;;;;5081959;28;20203;-61
2020/12/20 00:40:14;;;;;;;32.60;18.63;;;-0.40;99.90;;;;;;5070516;28;20210;-60
2020/12/20 00:42:40;;;;;;;36.88;21.83;;;-0.50;99.90;;;;;;5082849;28;20511;-61
2020/12/20 00:45:08;;;;;;;42.55;19.88;;;-0.60;99.90;;;;;;5079369;28;20412;-61
2020/12/20 00:47:34;;;;;;;34.42;19.05;;;-0.10;99.90;;;;;;5077619;28;20209;-62
2020/12/20 00:50:01;;;;;;;35.40;19.40;;;-0.90;99.90;;;;;;5079460;28;20213;-62
2020/12/20 00:52:27;;;;;;;36.85;21.88;;;-0.70;99.90;;;;;;5075826;28;20210;-61
2020/12/20 00:54:54;;;;;;;38.80;20.20;;;-0.70;99.90;;;;;;5080009;28;20215;-64
2020/12/20 00:57:20;;;;;;;29.73;19.58;;;-0.80;99.90;;;;;;5075954;28;21362;-61
2020/12/20 00:59:47;;;;;;;37.10;20.85;;;-1.00;99.90;;;;;;5082681;28;20195;-61
2020/12/20 01:02:13;;;;;;;32.58;18.38;;;-1.00;99.90;;;;;;5079496;28;20207;-61
2020/12/20 01:04:40;;;;;;;38.10;19.80;;;-1.00;99.90;;;;;;5084471;28;20229;-61
2020/12/20 01:07:07;;;;;;;30.27;19.48;;;-1.00;99.90;;;;;;5079595;28;20214;-61
2020/12/20 01:09:33;;;;;;;33.35;20.25;;;-0.90;99.90;;;;;;5077177;28;20202;-60
2020/12/20 01:12:01;;;;;;;29.10;17.60;;;-0.90;99.90;;;;;;5078979;28;20216;-60
2020/12/20 01:14:28;;;;;;;32.97;18.35;;;-1.00;99.90;;;;;;5075859;28;20206;-60
2020/12/20 01:16:55;;;;;;;38.58;18.67;;;-1.00;99.90;;;;;;5079925;28;20202;-60
2020/12/20 01:19:36;;;;;;;28.08;18.75;;;-0.70;99.90;;;;;;5075261;28;20580;-60
2020/12/20 01:22:03;;;;;;;31.60;18.70;;;-0.80;99.90;;;;;;5075671;28;20238;-61
2020/12/20 01:24:29;;;;;;;29.35;17.65;;;-0.80;99.90;;;;;;5079935;28;20238;-60
2020/12/20 01:26:56;;;;;;;35.17;18.42;;;-0.80;99.90;;;;;;5074228;28;20328;-61
2020/12/20 01:29:23;;;;;;;23.83;17.08;;;-0.60;99.90;;;;;;5082194;28;20450;-61
2020/12/20 01:31:50;;;;;;;31.63;17.38;;;-0.80;99.90;;;;;;5075501;28;20252;-61
2020/12/20 01:34:16;;;;;;;26.40;16.88;;;-1.00;99.90;;;;;;5080688;28;20281;-61
2020/12/20 01:36:43;;;;;;;30.20;18.08;;;-1.00;99.90;;;;;;5078356;28;20225;-61
2020/12/20 01:39:11;;;;;;;32.17;17.10;;;-0.50;99.90;;;;;;5080170;28;20206;-60
2020/12/20 01:41:38;;;;;;;35.90;19.27;;;-0.80;99.90;;;;;;5083974;28;20227;-60
2020/12/20 01:44:05;;;;;;;28.75;18.13;;;-1.10;99.90;;;;;;5077366;28;20630;-61
2020/12/20 01:46:33;;;;;;;28.40;17.30;;;-1.10;99.90;;;;;;5083260;28;20206;-60
2020/12/20 01:49:02;;;;;;;26.42;15.05;;;-1.00;99.90;;;;;;5077575;28;20210;-61
2020/12/20 01:51:29;;;;;;;22.83;15.43;;;-1.20;99.90;;;;;;5083193;28;20202;-60
2020/12/20 01:53:56;;;;;;;28.08;14.85;;;-1.20;99.90;;;;;;5076514;28;20214;-60
2020/12/20 01:56:22;;;;;;;26.10;15.82;;;-1.30;99.90;;;;;;5082189;28;20790;-61
2020/12/20 01:58:49;;;;;;;25.75;16.27;;;-1.10;99.90;;;;;;5077421;28;20206;-60
2020/12/20 02:01:15;;;;;;;28.92;14.68;;;-1.20;99.90;;;;;;5077671;28;20501;-61
2020/12/20 02:03:43;;;;;;;22.63;15.55;;;-0.90;99.90;;;;;;5076306;28;20569;-61
2020/12/20 02:06:14;;;;;;;25.48;16.90;;;-1.30;99.90;;;;;;5077513;28;20245;-61
2020/12/20 02:08:41;;;;;;;22.92;15.45;;;-1.40;99.90;;;;;;5077350;28;20210;-61
2020/12/20 02:11:07;;;;;;;24.98;14.70;;;-1.50;99.90;;;;;;5077685;28;20222;-61
2020/12/20 02:13:34;;;;;;;21.55;13.55;;;-1.40;99.90;;;;;;5077798;28;20210;-61
2020/12/20 02:16:03;;;;;;;24.02;15.43;;;-1.30;99.90;;;;;;5083774;28;20464;-60
2020/12/20 02:18:29;;;;;;;22.50;14.20;;;-0.90;99.90;;;;;;5079674;28;20210;-61
2020/12/20 02:20:56;;;;;;;24.58;14.93;;;-0.70;99.90;;;;;;5081837;28;20875;-61
2020/12/20 02:23:23;;;;;;;25.83;14.48;;;-0.90;99.90;;;;;;5077185;28;20206;-60
2020/12/20 02:25:51;;;;;;;28.08;15.32;;;-0.70;99.90;;;;;;5077447;28;20226;-60
2020/12/20 02:28:19;;;;;;;28.08;16.05;;;-0.90;99.90;;;;;;5079780;28;20218;-61
2020/12/20 02:30:46;;;;;;;23.75;14.77;;;-1.10;99.90;;;;;;5075164;28;20202;-60
2020/12/20 02:33:13;;;;;;;33.88;17.35;;;-1.20;99.90;;;;;;5077651;28;20203;-61
2020/12/20 02:35:44;;;;;;;23.23;13.70;;;-1.30;99.90;;;;;;5070974;28;20413;-60
2020/12/20 02:38:10;;;;;;;25.60;15.45;;;-1.20;99.90;;;;;;5086962;28;20208;-60
2020/12/20 02:40:39;;;;;;;25.60;15.98;;;-1.20;99.90;;;;;;5073005;28;20213;-61
2020/12/20 02:43:06;;;;;;;23.90;13.50;;;-1.40;99.90;;;;;;5076498;28;20340;-60
2020/12/20 02:45:33;;;;;;;27.15;17.13;;;-1.10;99.90;;;;;;5076148;28;20233;-60
2020/12/20 02:48:00;;;;;;;29.50;15.25;;;-0.10;99.90;;;;;;5074038;28;20702;-60
2020/12/20 02:50:33;;;;;;;32.10;16.95;;;-1.20;99.90;;;;;;5077310;28;20504;-60
2020/12/20 02:53:00;;;;;;;28.02;15.98;;;-0.80;99.90;;;;;;5080641;28;20211;-60
2020/12/20 02:55:27;;;;;;;28.00;15.10;;;-1.00;99.90;;;;;;5083625;28;20209;-60
2020/12/20 02:57:53;;;;;;;26.45;14.63;;;-0.90;99.90;;;;;;5076538;28;20216;-61
2020/12/20 03:00:21;;;;;;;20.13;12.40;;;-0.30;99.90;;;;;;5080258;28;20512;-59
2020/12/20 03:02:48;;;;;;;25.15;15.80;;;-0.90;99.90;;;;;;5077465;28;20203;-61
2020/12/20 03:05:17;;;;;;;20.48;13.48;;;-0.20;99.90;;;;;;5079198;28;20545;-61
2020/12/20 03:07:45;;;;;;;20.70;12.15;;;-1.00;99.90;;;;;;5074848;28;20493;-60
2020/12/20 03:10:13;;;;;;;20.92;14.15;;;-1.20;99.90;;;;;;5074711;28;20194;-60
2020/12/20 03:12:39;;;;;;;26.33;15.40;;;-1.30;99.90;;;;;;5075114;28;20214;-60
2020/12/20 03:15:06;;;;;;;22.60;12.95;;;-1.00;99.90;;;;;;5078930;28;20207;-61
2020/12/20 03:17:32;;;;;;;22.30;15.45;;;-1.10;99.90;;;;;;5075455;28;20236;-59
2020/12/20 03:19:59;;;;;;;19.77;13.80;;;-1.20;99.90;;;;;;5080359;28;20562;-62
2020/12/20 03:22:26;;;;;;;19.45;13.95;;;-1.30;99.90;;;;;;5071699;28;20199;-60
2020/12/20 03:24:52;;;;;;;26.35;13.43;;;-1.40;99.90;;;;;;5082303;28;20240;-61
2020/12/20 03:27:19;;;;;;;23.85;14.88;;;-1.10;99.90;;;;;;5074087;28;20512;-60
2020/12/20 03:29:45;;;;;;;17.48;12.82;;;-1.30;99.90;;;;;;5080127;28;20570;-61
2020/12/20 03:32:12;;;;;;;18.88;12.98;;;-1.50;99.90;;;;;;5075697;28;20214;-61
2020/12/20 03:34:39;;;;;;;18.25;11.40;;;-1.50;99.90;;;;;;5074201;28;20226;-60
2020/12/20 03:37:05;;;;;;;25.83;15.07;;;-1.30;99.90;;;;;;5082054;28;20420;-61
2020/12/20 03:39:32;;;;;;;27.42;13.55;;;-1.10;99.90;;;;;;5077620;28;20210;-60
2020/12/20 03:41:59;;;;;;;20.52;12.45;;;-1.00;99.90;;;;;;5081429;28;20208;-60
2020/12/20 03:44:25;;;;;;;19.30;13.65;;;-0.50;99.90;;;;;;5076499;28;20226;-62
2020/12/20 03:46:52;;;;;;;20.15;13.60;;;-1.10;99.90;;;;;;5077323;28;20206;-61
2020/12/20 03:49:19;;;;;;;25.35;13.05;;;-1.20;99.90;;;;;;5075354;28;20451;-61
2020/12/20 03:51:45;;;;;;;21.30;12.48;;;-0.90;99.90;;;;;;5080126;28;20502;-64
2020/12/20 03:54:12;;;;;;;18.50;11.88;;;-0.90;99.90;;;;;;5076441;28;20202;-60
2020/12/20 03:56:39;;;;;;;22.33;12.13;;;-0.80;99.90;;;;;;5074974;28;20550;-61
2020/12/20 03:59:05;;;;;;;18.60;13.07;;;-0.90;99.90;;;;;;5078863;28;20207;-60
2020/12/20 04:01:32;;;;;;;24.08;14.25;;;-0.90;99.90;;;;;;5077462;28;20210;-60
2020/12/20 04:03:58;;;;;;;19.20;13.50;;;-0.60;99.90;;;;;;5076189;28;20252;-60
2020/12/20 04:06:25;;;;;;;23.50;13.23;;;-1.10;99.90;;;;;;5075316;28;20317;-61
2020/12/20 04:08:51;;;;;;;24.10;13.18;;;-1.30;99.90;;;;;;5077026;28;20217;-61
2020/12/20 04:11:18;;;;;;;19.55;12.00;;;-1.00;99.90;;;;;;5080460;28;20386;-61
2020/12/20 04:13:45;;;;;;;17.65;12.02;;;-0.30;99.90;;;;;;5077999;28;20432;-60
2020/12/20 04:16:11;;;;;;;23.25;14.13;;;-1.00;99.90;;;;;;5080433;28;20378;-60
2020/12/20 04:18:38;;;;;;;22.65;15.05;;;-1.00;99.90;;;;;;5080295;28;20213;-61
2020/12/20 04:21:05;;;;;;;21.02;12.98;;;-1.30;99.90;;;;;;5074131;28;20489;-60
2020/12/20 04:23:32;;;;;;;15.70;11.90;;;-1.20;99.90;;;;;;5078267;28;20206;-63
2020/12/20 04:25:59;;;;;;;23.08;14.13;;;-1.00;99.90;;;;;;5073275;28;20226;-60
2020/12/20 04:28:26;;;;;;;20.85;13.25;;;-1.20;99.90;;;;;;5081746;28;20404;-61
2020/12/20 04:30:53;;;;;;;18.88;13.35;;;-1.30;99.90;;;;;;5075592;28;20408;-61
2020/12/20 04:33:19;;;;;;;22.92;12.75;;;-1.40;99.90;;;;;;5081234;28;20504;-60
2020/12/20 04:35:47;;;;;;;28.65;12.93;;;-1.40;99.90;;;;;;5075564;28;20429;-59
2020/12/20 04:38:13;;;;;;;17.90;11.15;;;-1.20;99.90;;;;;;5077951;28;20571;-60
2020/12/20 04:40:40;;;;;;;16.20;12.18;;;-1.20;99.90;;;;;;5075414;28;20207;-61
2020/12/20 04:43:09;;;;;;;17.45;11.07;;;-1.40;99.90;;;;;;5074249;28;20206;-60
2020/12/20 04:45:36;;;;;;;19.13;12.23;;;-1.10;99.90;;;;;;5080481;28;20235;-61
2020/12/20 04:48:04;;;;;;;20.50;11.75;;;-1.10;99.90;;;;;;5076825;28;20202;-60
2020/12/20 04:50:31;;;;;;;23.05;12.65;;;-0.80;99.90;;;;;;5076958;28;20493;-61
2020/12/20 04:53:00;;;;;;;19.85;11.65;;;-1.40;99.90;;;;;;5078177;28;20207;-60
2020/12/20 04:55:27;;;;;;;15.20;9.80;;;-0.80;99.90;;;;;;5081981;28;20207;-60
2020/12/20 04:57:55;;;;;;;19.38;13.05;;;-1.40;99.90;;;;;;5072472;28;20281;-59
2020/12/20 05:00:22;;;;;;;16.13;10.85;;;-1.30;99.90;;;;;;5077091;28;20229;-60
2020/12/20 05:02:49;;;;;;;21.20;11.10;;;-0.60;99.90;;;;;;5073318;28;20213;-61
2020/12/20 05:05:16;;;;;;;15.05;10.48;;;-1.40;99.90;;;;;;5074771;28;20226;-60
2020/12/20 05:07:44;;;;;;;17.27;11.75;;;-1.30;99.90;;;;;;5078438;28;20228;-61
2020/12/20 05:10:11;;;;;;;16.00;11.30;;;-0.70;99.90;;;;;;5077896;28;20533;-61
2020/12/20 05:12:38;;;;;;;23.63;13.60;;;-1.40;99.90;;;;;;5075445;28;20203;-60
2020/12/20 05:15:25;;;;;;;21.02;12.80;;;-1.50;99.90;;;;;;5077615;28;20234;-60
2020/12/20 05:18:09;;;;;;;15.23;11.05;;;-0.90;99.90;;;;;;5075038;28;20218;-61
2020/12/20 05:20:43;;;;;;;16.98;11.00;;;-1.40;99.90;;;;;;5080210;28;20231;-60
2020/12/20 05:23:12;;;;;;;18.17;11.98;;;-1.30;99.90;;;;;;5075709;28;20413;-60
2020/12/20 05:25:40;;;;;;;17.85;13.13;;;-1.20;99.90;;;;;;5078324;28;20233;-61
2020/12/20 05:28:23;;;;;;;18.70;11.30;;;-1.40;99.90;;;;;;5074858;28;20699;-60
2020/12/20 05:30:50;;;;;;;21.15;13.13;;;-1.40;99.90;;;;;;5079324;28;20203;-61
2020/12/20 05:33:28;;;;;;;18.85;12.35;;;-1.50;99.90;;;;;;5081691;28;20663;-60
2020/12/20 05:36:02;;;;;;;16.30;10.15;;;-1.40;99.90;;;;;;5077116;28;20623;-60
2020/12/20 05:38:30;;;;;;;16.30;12.57;;;-1.60;99.90;;;;;;5081169;28;20206;-60
2020/12/20 05:40:57;;;;;;;19.23;11.45;;;-1.60;99.90;;;;;;5084196;28;20214;-60
2020/12/20 05:43:25;;;;;;;19.58;11.57;;;-1.60;99.90;;;;;;5077264;28;20222;-60
2020/12/20 05:45:55;;;;;;;11.27;9.80;;;-1.70;99.90;;;;;;5102682;28;20536;-60
2020/12/20 05:48:24;;;;;;;21.58;10.98;;;-1.70;99.90;;;;;;5076160;28;20214;-60
2020/12/20 05:50:54;;;;;;;13.20;9.65;;;-1.20;99.90;;;;;;5078933;28;20202;-60
2020/12/20 05:53:28;;;;;;;21.08;12.35;;;-1.70;99.90;;;;;;5079814;28;20213;-60
2020/12/20 05:55:56;;;;;;;19.33;13.52;;;-1.60;99.90;;;;;;5081330;28;20555;-60
2020/12/20 05:58:25;;;;;;;16.02;10.75;;;-1.70;99.90;;;;;;5078361;28;20210;-60
2020/12/20 06:00:52;;;;;;;18.20;11.60;;;-1.70;99.90;;;;;;5080719;28;20412;-60
2020/12/20 06:03:19;;;;;;;15.07;11.88;;;-1.70;99.90;;;;;;5076415;28;20304;-61
2020/12/20 06:05:46;;;;;;;16.73;12.52;;;-1.20;99.90;;;;;;5078921;28;20235;-60
2020/12/20 06:08:20;;;;;;;16.00;10.27;;;-1.70;99.90;;;;;;5078235;28;20207;-60
2020/12/20 06:10:52;;;;;;;19.13;12.15;;;-1.90;99.90;;;;;;5078873;28;20210;-60
2020/12/20 06:13:21;;;;;;;20.70;11.38;;;-1.90;99.90;;;;;;5078400;28;20416;-60
2020/12/20 06:15:53;;;;;;;23.35;12.70;;;-1.90;99.90;;;;;;5080337;28;20202;-61
2020/12/20 06:18:27;;;;;;;14.15;10.13;;;-1.80;99.90;;;;;;5078465;28;20207;-60
2020/12/20 06:21:03;;;;;;;18.08;12.88;;;-1.80;99.90;;;;;;5076232;28;20562;-61
2020/12/20 06:23:32;;;;;;;16.38;10.50;;;-2.00;99.90;;;;;;5080201;28;20209;-60
2020/12/20 06:26:01;;;;;;;26.15;12.63;;;-2.00;99.90;;;;;;5077738;28;20250;-60
2020/12/20 06:28:30;;;;;;;14.07;10.38;;;-1.80;99.90;;;;;;5084155;28;20587;-60
2020/12/20 06:30:58;;;;;;;17.67;11.75;;;-1.80;99.90;;;;;;5072433;28;20206;-60
2020/12/20 06:33:36;;;;;;;17.15;12.60;;;-1.50;99.90;;;;;;5077924;28;20203;-60
2020/12/20 06:36:08;;;;;;;20.45;11.98;;;-1.70;99.90;;;;;;5079642;28;20213;-60
2020/12/20 06:38:35;;;;;;;18.73;13.00;;;-1.50;99.90;;;;;;5081116;28;20202;-60
2020/12/20 06:41:03;;;;;;;17.55;13.07;;;-1.80;99.90;;;;;;5080934;28;20386;-60
2020/12/20 06:43:31;;;;;;;18.77;12.27;;;-1.60;99.90;;;;;;5078515;28;20213;-60
2020/12/20 06:45:59;;;;;;;20.00;11.40;;;-1.00;99.90;;;;;;5078961;28;20506;-60
2020/12/20 06:48:36;;;;;;;18.80;12.73;;;-1.90;99.90;;;;;;5081615;28;20236;-60
2020/12/20 06:51:08;;;;;;;16.80;11.57;;;-1.80;99.90;;;;;;5075261;28;20259;-59
2020/12/20 06:53:51;;;;;;;14.88;11.13;;;-1.60;99.90;;;;;;5081083;28;20202;-60
2020/12/20 06:56:22;;;;;;;16.88;10.45;;;-1.40;99.90;;;;;;5075249;28;20548;-59
2020/12/20 06:58:51;;;;;;;20.02;12.35;;;-1.30;99.90;;;;;;5073457;28;20207;-59
2020/12/20 07:01:37;;;;;;;25.23;13.45;;;-1.60;99.90;;;;;;5072168;28;20214;-59
2020/12/20 07:04:14;;;;;;;18.27;10.95;;;-1.40;99.90;;;;;;5082509;28;20513;-59
2020/12/20 07:06:41;;;;;;;16.80;11.65;;;-1.40;99.90;;;;;;5074450;28;20413;-59
2020/12/20 07:09:08;;;;;;;20.05;12.52;;;-1.30;99.90;;;;;;5082841;28;20195;-59
2020/12/20 07:11:47;;;;;;;15.35;9.73;;;-0.70;99.90;;;;;;5077034;28;20213;-59
2020/12/20 07:14:22;;;;;;;18.38;11.50;;;-1.40;99.90;;;;;;5079509;28;20198;-60
2020/12/20 07:16:50;;;;;;;20.13;10.35;;;-1.60;99.90;;;;;;5074226;28;20213;-59
2020/12/20 07:19:26;;;;;;;24.20;11.57;;;-1.20;99.90;;;;;;5086908;28;20202;-59
2020/12/20 07:21:53;;;;;;;17.48;11.25;;;-1.10;99.90;;;;;;5078143;28;20459;-58
2020/12/20 07:24:29;;;;;;;15.55;11.85;;;-1.10;99.90;;;;;;5084440;28;20206;-58
2020/12/20 07:27:00;;;;;;;20.58;13.93;;;-1.20;99.90;;;;;;5081854;28;20206;-59
2020/12/20 07:29:32;;;;;;;22.15;14.98;;;-1.00;99.90;;;;;;5077986;28;20426;-60
2020/12/20 07:32:01;;;;;;;23.50;13.30;;;-1.00;99.90;;;;;;5074679;28;20202;-60
2020/12/20 07:34:28;;;;;;;24.70;14.13;;;-0.80;99.90;;;;;;5078617;28;20465;-59
2020/12/20 07:36:55;;;;;;;24.30;15.20;;;-0.90;99.90;;;;;;5081985;28;20266;-59
2020/12/20 07:39:24;;;;;;;26.23;15.98;;;-0.40;99.90;;;;;;5075770;28;20210;-59
2020/12/20 07:41:51;;;;;;;24.58;16.70;;;-1.00;99.90;;;;;;5081221;28;20226;-59
2020/12/20 07:44:17;;;;;;;29.52;16.08;;;-1.10;99.90;;;;;;5078736;28;20222;-59
2020/12/20 07:46:45;;;;;;;23.42;14.27;;;-1.00;99.90;;;;;;5078982;28;20440;-59
2020/12/20 07:49:15;;;;;;;19.25;13.10;;;-1.00;99.90;;;;;;5082837;28;20253;-59
2020/12/20 07:51:42;;;;;;;23.65;13.98;;;-0.90;99.90;;;;;;5079169;28;20270;-60
2020/12/20 07:54:10;;;;;;;19.23;13.82;;;0.00;99.90;;;;;;5081847;28;20202;-59
2020/12/20 07:56:44;;;;;;;25.88;14.85;;;-0.50;99.90;;;;;;5082107;28;20210;-59
2020/12/20 07:59:12;;;;;;;23.90;15.10;;;-0.80;99.90;;;;;;5073670;28;20540;-59
2020/12/20 08:01:40;;;;;;;26.92;16.25;;;-0.80;99.90;;;;;;5080195;28;20202;-60
2020/12/20 08:04:14;;;;;;;31.23;14.68;;;-0.70;99.90;;;;;;5071956;28;20297;-59
2020/12/20 08:06:42;;;;;;;25.00;16.67;;;-0.80;99.90;;;;;;5077540;28;20225;-59
2020/12/20 08:09:12;;;;;;;24.45;15.70;;;-0.30;99.90;;;;;;5065652;28;20214;-58
2020/12/20 08:11:41;;;;;;;22.83;14.00;;;-0.50;99.90;;;;;;5078873;28;20201;-59
2020/12/20 08:14:10;;;;;;;28.73;16.60;;;-0.60;99.90;;;;;;5078653;28;20207;-59
2020/12/20 08:16:50;;;;;;;28.55;17.52;;;-0.30;99.90;;;;;;5081888;28;20279;-58
2020/12/20 08:19:29;;;;;;;26.63;16.60;;;-0.30;99.90;;;;;;5078483;28;20229;-59
2020/12/20 08:22:06;;;;;;;33.13;18.02;;;-0.50;99.90;;;;;;5079294;28;20234;-59
2020/12/20 08:24:38;;;;;;;38.90;19.17;;;-0.40;99.90;;;;;;5069884;28;20213;-59
2020/12/20 08:27:16;;;;;;;32.05;17.77;;;-0.30;99.90;;;;;;5080865;28;20210;-58
2020/12/20 08:29:48;;;;;;;28.80;16.98;;;0.00;99.90;;;;;;5077285;28;20529;-60
2020/12/20 08:32:32;;;;;;;35.00;20.98;;;0.10;99.90;;;;;;5079089;28;20417;-59
2020/12/20 08:35:28;;;;;;;29.00;19.98;;;-0.10;99.90;;;;;;5071246;28;20630;-60
2020/12/20 08:38:00;;;;;;;35.67;18.63;;;0.00;99.90;;;;;;5073022;28;20306;-58
2020/12/20 08:40:31;;;;;;;26.30;15.10;;;0.30;99.90;;;;;;5076226;28;20777;-58
2020/12/20 08:42:59;;;;;;;30.00;20.05;;;0.20;99.90;;;;;;5073763;28;20207;-59
2020/12/20 08:45:30;;;;;;;33.67;18.95;;;0.40;99.90;;;;;;5071051;28;20234;-59
2020/12/20 08:48:01;;;;;;;31.95;19.60;;;0.50;99.90;;;;;;5072411;28;20206;-60
2020/12/20 08:50:33;;;;;;;36.55;19.67;;;1.20;99.90;;;;;;5071856;28;20202;-60
2020/12/20 08:53:04;;;;;;;41.92;21.52;;;0.50;99.90;;;;;;5079960;28;20505;-59
2020/12/20 08:55:32;;;;;;;43.20;24.13;;;0.50;99.90;;;;;;5073793;28;20211;-59
2020/12/20 08:58:06;;;;;;;37.67;22.42;;;0.50;99.90;;;;;;5078945;28;20733;-60
2020/12/20 09:00:35;;;;;;;35.47;23.25;;;0.60;99.90;;;;;;5068477;28;20202;-60
2020/12/20 09:03:03;;;;;;;37.00;20.70;;;1.20;99.90;;;;;;5074743;28;20269;-59
2020/12/20 09:05:33;;;;;;;32.08;19.70;;;0.80;99.90;;;;;;5079213;28;20226;-59
2020/12/20 09:08:00;;;;;;;34.38;19.02;;;0.90;99.90;;;;;;5080199;28;20233;-59
2020/12/20 09:10:30;;;;;;;45.25;23.05;;;0.90;99.90;;;;;;5094539;28;20244;-60
2020/12/20 09:12:59;;;;;;;39.33;22.13;;;0.90;99.90;;;;;;5080113;28;20215;-60
2020/12/20 09:15:29;;;;;;;34.83;20.92;;;0.90;99.90;;;;;;5079613;28;20374;-59
2020/12/20 09:17:57;;;;;;;33.60;19.77;;;1.20;99.90;;;;;;5083213;28;20222;-59
2020/12/20 09:20:27;;;;;;;34.08;19.58;;;1.10;99.90;;;;;;5084372;28;20246;-59
2020/12/20 09:22:59;;;;;;;35.10;21.15;;;1.10;99.90;;;;;;5079579;28;20202;-59
2020/12/20 09:25:37;;;;;;;34.08;17.98;;;1.10;99.90;;;;;;5080506;28;20237;-59
2020/12/20 09:28:07;;;;;;;31.45;20.52;;;1.20;99.90;;;;;;5078710;28;20210;-59
2020/12/20 09:30:38;;;;;;;33.47;19.52;;;1.20;99.90;;;;;;5080530;28;20403;-59
2020/12/20 09:33:36;;;;;;;35.88;21.70;;;1.30;99.90;;;;;;5073786;28;20271;-59
2020/12/20 09:36:07;;;;;;;30.10;18.75;;;1.10;99.90;;;;;;5069827;28;20211;-60
2020/12/20 09:38:38;;;;;;;39.30;21.33;;;1.30;99.90;;;;;;5071551;28;20203;-61
2020/12/20 09:41:07;;;;;;;34.90;20.08;;;1.40;99.90;;;;;;5073745;28;20206;-61
2020/12/20 09:43:34;;;;;;;29.65;19.85;;;1.50;99.90;;;;;;5079506;28;20206;-60
2020/12/20 09:46:02;;;;;;;31.15;18.60;;;1.60;99.90;;;;;;5082979;28;20222;-60
2020/12/20 09:48:29;;;;;;;31.33;17.45;;;1.70;99.90;;;;;;5076950;28;20226;-60
2020/12/20 09:50:56;;;;;;;22.75;16.17;;;1.80;99.90;;;;;;5076044;28;20207;-60
2020/12/20 09:53:27;;;;;;;33.17;19.20;;;2.00;99.90;;;;;;5079015;28;20207;-60
2020/12/20 09:55:54;;;;;;;25.48;17.95;;;2.00;99.90;;;;;;5077200;28;20241;-60
2020/12/20 09:58:21;;;;;;;32.25;18.15;;;1.80;99.90;;;;;;5077679;28;20406;-60
2020/12/20 10:00:47;;;;;;;31.90;19.45;;;1.90;99.90;;;;;;5086373;28;20205;-61
2020/12/20 10:03:14;;;;;;;26.98;18.20;;;1.90;99.90;;;;;;5075450;28;20508;-61
2020/12/20 10:05:43;;;;;;;30.55;18.27;;;1.90;99.90;;;;;;5083179;28;20217;-61
2020/12/20 10:08:11;;;;;;;26.17;17.20;;;1.90;99.90;;;;;;5072556;28;20210;-60
2020/12/20 10:10:37;;;;;;;25.27;18.27;;;2.10;99.90;;;;;;5081208;28;20646;-61
2020/12/20 10:13:09;;;;;;;27.25;18.92;;;2.00;99.90;;;;;;5074130;28;20214;-61
2020/12/20 10:15:37;;;;;;;38.17;18.95;;;2.10;99.90;;;;;;5081003;28;20206;-61
2020/12/20 10:18:03;;;;;;;32.00;19.65;;;2.10;99.90;;;;;;5076591;28;20219;-61
2020/12/20 10:20:31;;;;;;;21.52;18.02;;;2.30;99.90;;;;;;5075342;28;20245;-61
2020/12/20 10:22:59;;;;;;;17.55;12.30;;;2.30;99.90;;;;;;5082306;28;20203;-61
2020/12/20 10:25:26;;;;;;;27.73;14.65;;;2.30;99.90;;;;;;5077365;28;20298;-61
2020/12/20 10:27:54;;;;;;;21.73;13.07;;;2.30;99.90;;;;;;5081906;28;20203;-61
2020/12/20 10:30:21;;;;;;;20.25;13.25;;;2.60;99.90;;;;;;5079876;28;20202;-65
2020/12/20 10:32:49;;;;;;;21.60;12.77;;;2.40;99.90;;;;;;5076382;28;20274;-60
2020/12/20 10:35:16;;;;;;;27.38;17.38;;;2.50;99.90;;;;;;5081279;28;20253;-60
2020/12/20 10:37:43;;;;;;;28.40;16.52;;;2.40;99.90;;;;;;5079309;28;20227;-61
2020/12/20 10:40:10;;;;;;;25.80;14.82;;;2.60;99.90;;;;;;5077672;28;20205;-60
2020/12/20 10:42:37;;;;;;;19.23;13.95;;;2.50;99.90;;;;;;5071026;28;20202;-60
2020/12/20 10:45:05;;;;;;;23.40;12.13;;;2.50;99.90;;;;;;5073331;28;20802;-61
2020/12/20 10:47:32;;;;;;;24.90;14.93;;;2.60;99.90;;;;;;5077932;28;20202;-61
2020/12/20 10:49:58;;;;;;;33.75;15.98;;;2.60;99.90;;;;;;5064233;28;20213;-61
2020/12/20 10:52:27;;;;;;;30.08;16.65;;;2.50;99.90;;;;;;5074640;28;20226;-60
2020/12/20 10:54:54;;;;;;;33.65;18.33;;;2.40;99.90;;;;;;5078059;28;20223;-61
2020/12/20 10:57:21;;;;;;;21.40;13.43;;;2.50;99.90;;;;;;5080993;28;20207;-60
2020/12/20 10:59:48;;;;;;;18.80;12.60;;;2.50;99.90;;;;;;5073245;28;20218;-60
2020/12/20 11:02:15;;;;;;;17.05;12.32;;;2.50;99.90;;;;;;5070847;28;20228;-60
2020/12/20 11:04:43;;;;;;;22.77;13.15;;;2.60;99.90;;;;;;5072201;28;20203;-61
2020/12/20 11:07:10;;;;;;;22.25;12.02;;;2.80;99.90;;;;;;5078242;28;20438;-61
2020/12/20 11:09:37;;;;;;;30.85;15.07;;;2.70;99.90;;;;;;5081788;28;20207;-60
2020/12/20 11:12:05;;;;;;;18.70;12.95;;;2.80;99.90;;;;;;5078906;28;20214;-60
2020/12/20 11:14:32;;;;;;;14.75;10.85;;;2.70;99.90;;;;;;5080146;28;20203;-60
2020/12/20 11:16:59;;;;;;;26.00;13.20;;;2.80;99.90;;;;;;5077725;28;20217;-61
2020/12/20 11:19:26;;;;;;;15.63;11.15;;;2.90;99.90;;;;;;5082536;28;20204;-61
2020/12/20 11:21:55;;;;;;;14.82;11.25;;;3.00;99.90;;;;;;5075963;28;20575;-61
2020/12/20 11:24:22;;;;;;;14.82;10.25;;;3.10;99.90;;;;;;5079048;28;20226;-63
2020/12/20 11:26:50;;;;;;;11.93;10.50;;;3.10;99.90;;;;;;5079021;28;20634;-61
2020/12/20 11:29:17;;;;;;;18.45;12.32;;;2.70;99.90;;;;;;5077012;28;20209;-61
2020/12/20 11:31:44;;;;;;;20.30;11.25;;;3.10;99.90;;;;;;5078272;28;20219;-62
2020/12/20 11:34:11;;;;;;;15.55;10.48;;;3.00;99.90;;;;;;5079218;28;20228;-61
2020/12/20 11:36:39;;;;;;;13.95;9.65;;;3.00;99.90;;;;;;5072298;28;21084;-61
2020/12/20 11:39:07;;;;;;;15.38;11.10;;;3.30;99.90;;;;;;5072657;28;20495;-61
2020/12/20 11:41:34;;;;;;;16.13;10.90;;;3.20;99.90;;;;;;5071458;28;20376;-60
2020/12/20 11:44:01;;;;;;;10.68;8.40;;;3.20;99.90;;;;;;5073556;28;20217;-61
2020/12/20 11:46:28;;;;;;;13.02;9.18;;;3.20;99.90;;;;;;5062642;28;20276;-60
2020/12/20 11:48:56;;;;;;;15.57;9.45;;;3.10;99.90;;;;;;5058765;28;20208;-61
2020/12/20 11:51:26;;;;;;;12.55;9.70;;;3.10;99.90;;;;;;5080952;28;20212;-60
2020/12/20 11:53:57;;;;;;;12.13;9.65;;;3.20;99.90;;;;;;5069277;28;20245;-63
2020/12/20 11:56:24;;;;;;;10.02;8.98;;;3.30;99.90;;;;;;5079822;28;20275;-61
2020/12/20 11:58:50;;;;;;;9.68;8.43;;;3.20;99.90;;;;;;5072924;28;20468;-61
2020/12/20 12:01:26;;;;;;;10.23;7.82;;;3.40;99.90;;;;;;5077709;28;20203;-61
2020/12/20 12:03:52;;;;;;;16.13;9.15;;;3.30;99.90;;;;;;5069864;28;20517;-60
2020/12/20 12:06:19;;;;;;;10.05;7.82;;;3.30;99.90;;;;;;5075235;28;20564;-60
2020/12/20 12:08:46;;;;;;;12.32;8.38;;;3.60;99.90;;;;;;5077958;28;20632;-61
2020/12/20 12:11:17;;;;;;;11.25;8.30;;;3.40;99.90;;;;;;5077818;28;20214;-64
2020/12/20 12:13:45;;;;;;;11.85;8.02;;;3.70;99.90;;;;;;5075763;28;20213;-61
2020/12/20 12:16:14;;;;;;;12.55;8.27;;;3.50;99.90;;;;;;5066638;28;20212;-60
2020/12/20 12:18:42;;;;;;;10.50;7.05;;;3.70;99.90;;;;;;5074007;28;20201;-61
2020/12/20 12:21:13;;;;;;;12.02;9.05;;;3.40;99.90;;;;;;5063934;28;20248;-60
2020/12/20 12:23:44;;;;;;;12.25;8.30;;;3.40;99.90;;;;;;5073518;28;20208;-60
2020/12/20 12:26:11;;;;;;;12.15;7.70;;;3.20;99.90;;;;;;5079591;28;20482;-60
2020/12/20 12:28:38;;;;;;;11.70;7.68;;;3.30;99.90;;;;;;5079797;28;20268;-60
2020/12/20 12:31:05;;;;;;;9.02;7.32;;;3.60;99.90;;;;;;5077355;28;20208;-61
2020/12/20 12:33:31;;;;;;;9.63;7.55;;;3.70;99.90;;;;;;5073757;28;20216;-61
2020/12/20 12:35:58;;;;;;;11.52;7.85;;;3.60;99.90;;;;;;5075934;28;20229;-59
2020/12/20 12:38:24;;;;;;;9.32;6.40;;;3.60;99.90;;;;;;5082707;28;20209;-61